createdAt,value
2023-04-26T00:01:28.462Z,3.72
2023-04-26T00:03:56.341Z,3.65
2023-04-26T00:06:23.217Z,3.61
2023-04-26T00:08:49.781Z,3.56
2023-04-26T00:11:16.304Z,3.49
2023-04-26T00:13:42.693Z,3.37
2023-04-26T00:16:09.155Z,3.30
2023-04-26T00:18:35.712Z,3.29
2023-04-26T00:21:02.049Z,3.30
2023-04-26T00:23:28.440Z,3.28
2023-04-26T00:25:54.813Z,3.23
2023-04-26T00:28:21.509Z,3.18
2023-04-26T00:30:48.859Z,3.17
2023-04-26T00:33:15.321Z,3.18
2023-04-26T00:35:41.712Z,3.16
2023-04-26T00:38:08.108Z,3.14
2023-04-26T00:40:35.494Z,3.08
2023-04-26T00:43:03.548Z,2.99
2023-04-26T00:45:30.986Z,2.89
2023-04-26T00:48:00.894Z,2.81
2023-04-26T00:50:27.838Z,2.77
2023-04-26T00:52:55.449Z,2.75
2023-04-26T00:55:22.825Z,2.73
2023-04-26T00:57:49.364Z,2.68
2023-04-26T01:00:16.803Z,2.61
2023-04-26T01:02:43.406Z,2.53
2023-04-26T01:05:09.954Z,2.49
2023-04-26T01:07:37.312Z,2.39
2023-04-26T01:10:09.329Z,2.28
2023-04-26T01:12:37.244Z,2.17
2023-04-26T01:15:05.515Z,2.05
2023-04-26T01:17:32.060Z,1.99
2023-04-26T01:19:58.413Z,1.91
2023-04-26T01:22:24.848Z,1.83
2023-04-26T01:24:51.697Z,1.81
2023-04-26T01:27:18.209Z,1.77
2023-04-26T01:29:46.133Z,1.72
2023-04-26T01:32:12.555Z,1.72
2023-04-26T01:34:38.951Z,1.73
2023-04-26T01:37:05.411Z,1.73
2023-04-26T01:39:31.731Z,1.70
2023-04-26T01:42:01.047Z,1.67
2023-04-26T01:44:27.507Z,1.67
2023-04-26T01:46:53.938Z,1.66
2023-04-26T01:49:20.358Z,1.66
2023-04-26T01:51:46.860Z,1.65
2023-04-26T01:54:13.333Z,1.60
2023-04-26T01:56:39.663Z,1.56
2023-04-26T01:59:06.190Z,1.49
2023-04-26T02:01:32.773Z,1.53
2023-04-26T02:03:59.150Z,1.58
2023-04-26T02:06:26.378Z,1.60
2023-04-26T02:08:54.157Z,1.56
2023-04-26T02:11:21.218Z,1.49
2023-04-26T02:13:47.728Z,1.43
2023-04-26T02:16:16.468Z,1.36
2023-04-26T02:18:42.982Z,1.32
2023-04-26T02:21:11.296Z,1.29
2023-04-26T02:23:37.792Z,1.27
2023-04-26T02:26:04.587Z,1.30
2023-04-26T02:28:31.507Z,1.35
2023-04-26T02:30:58.433Z,1.34
2023-04-26T02:33:24.958Z,1.29
2023-04-26T02:35:51.527Z,1.18
2023-04-26T02:38:18.063Z,1.11
2023-04-26T02:40:44.406Z,1.12
2023-04-26T02:43:10.903Z,1.07
2023-04-26T02:45:43.702Z,1.01
2023-04-26T02:48:10.195Z,0.98
2023-04-26T02:50:36.808Z,0.93
2023-04-26T02:53:03.633Z,0.86
2023-04-26T02:55:30.112Z,0.83
2023-04-26T02:57:56.531Z,0.79
2023-04-26T03:00:23.580Z,0.72
2023-04-26T03:02:50.149Z,0.71
2023-04-26T03:05:16.921Z,0.68
2023-04-26T03:07:43.375Z,0.67
2023-04-26T03:10:10.265Z,0.66
2023-04-26T03:12:36.803Z,0.69
2023-04-26T03:15:03.989Z,0.66
2023-04-26T03:17:30.410Z,0.62
2023-04-26T03:19:57.030Z,0.57
2023-04-26T03:22:23.517Z,0.54
2023-04-26T03:24:49.997Z,0.55
2023-04-26T03:27:16.674Z,0.57
2023-04-26T03:29:44.248Z,0.64
2023-04-26T03:32:11.119Z,0.66
2023-04-26T03:34:37.746Z,0.61
2023-04-26T03:37:04.144Z,0.55
2023-04-26T03:39:30.590Z,0.55
2023-04-26T03:41:57.077Z,0.60
2023-04-26T03:44:23.409Z,0.59
2023-04-26T03:46:49.802Z,0.58
2023-04-26T03:49:16.194Z,0.59
2023-04-26T03:51:42.642Z,0.57
2023-04-26T03:54:09.128Z,0.53
2023-04-26T03:56:36.683Z,0.52
2023-04-26T03:59:03.082Z,0.56
2023-04-26T04:01:29.585Z,0.59
2023-04-26T04:03:56.551Z,0.63
2023-04-26T04:06:23.228Z,0.64
2023-04-26T04:08:49.853Z,0.65
2023-04-26T04:11:16.935Z,0.65
2023-04-26T04:13:43.551Z,0.66
2023-04-26T04:16:10.433Z,0.67
2023-04-26T04:18:37.217Z,0.66
2023-04-26T04:21:03.931Z,0.66
2023-04-26T04:23:30.427Z,0.65
2023-04-26T04:25:56.941Z,0.69
2023-04-26T04:28:23.812Z,0.70
2023-04-26T04:30:50.835Z,0.73
2023-04-26T04:33:17.826Z,0.78
2023-04-26T04:35:44.941Z,0.78
2023-04-26T04:38:11.412Z,0.81
2023-04-26T04:40:37.857Z,0.85
2023-04-26T04:43:04.377Z,0.87
2023-04-26T04:45:30.769Z,0.91
2023-04-26T04:47:57.324Z,0.96
2023-04-26T04:50:24.212Z,0.99
2023-04-26T04:52:50.652Z,1.03
2023-04-26T04:55:17.046Z,1.12
2023-04-26T04:57:43.608Z,1.18
2023-04-26T05:00:12.474Z,1.22
2023-04-26T05:02:38.956Z,1.26
2023-04-26T05:05:05.957Z,1.21
2023-04-26T05:07:32.826Z,1.23
2023-04-26T05:10:00.041Z,1.24
2023-04-26T05:12:27.101Z,1.25
2023-04-26T05:14:53.714Z,1.32
2023-04-26T05:17:20.123Z,1.40
2023-04-26T05:19:47.248Z,1.51
2023-04-26T05:22:18.355Z,1.64
2023-04-26T05:24:48.727Z,1.78
2023-04-26T05:27:15.883Z,1.89
2023-04-26T05:29:42.307Z,1.96
2023-04-26T05:32:08.988Z,2.07
2023-04-26T05:34:36.484Z,2.39
2023-04-26T05:37:03.485Z,3.83
2023-04-26T05:39:30.508Z,5.39
2023-04-26T05:41:57.222Z,6.66
2023-04-26T05:44:23.689Z,7.39
2023-04-26T05:46:50.096Z,7.85
2023-04-26T05:49:16.526Z,8.36
2023-04-26T05:51:43.291Z,8.80
2023-04-26T05:54:09.790Z,9.56
2023-04-26T05:56:36.258Z,10.01
2023-04-26T05:59:02.674Z,10.93
2023-04-26T06:01:29.018Z,11.52
2023-04-26T06:03:59.217Z,11.87
2023-04-26T06:06:28.458Z,11.75
2023-04-26T06:08:55.390Z,11.51
2023-04-26T06:11:21.840Z,11.70
2023-04-26T06:13:48.452Z,12.16
2023-04-26T06:16:15.262Z,11.43
2023-04-26T06:18:42.116Z,9.51
2023-04-26T06:21:08.500Z,8.40
2023-04-26T06:23:34.890Z,7.73
2023-04-26T06:26:01.390Z,7.47
2023-04-26T06:28:27.894Z,7.28
2023-04-26T06:30:54.365Z,7.16
2023-04-26T06:33:20.775Z,7.18
2023-04-26T06:35:47.169Z,7.24
2023-04-26T06:38:13.797Z,7.21
2023-04-26T06:40:40.339Z,7.20
2023-04-26T06:43:06.781Z,7.36
2023-04-26T06:45:33.291Z,7.47
2023-04-26T06:48:04.601Z,7.47
2023-04-26T06:50:31.077Z,7.45
2023-04-26T06:52:58.111Z,7.53
2023-04-26T06:55:24.946Z,7.56
2023-04-26T06:57:51.408Z,7.61
2023-04-26T07:00:18.287Z,7.80
2023-04-26T07:02:44.946Z,7.80
2023-04-26T07:05:11.608Z,7.90
2023-04-26T07:07:38.096Z,7.95
2023-04-26T07:10:04.937Z,7.97
2023-04-26T07:12:31.569Z,8.04
2023-04-26T07:14:58.069Z,8.14
2023-04-26T07:17:24.828Z,8.16
2023-04-26T07:19:51.192Z,8.07
2023-04-26T07:22:17.599Z,8.01
2023-04-26T07:24:44.002Z,8.11
2023-04-26T07:27:11.112Z,8.31
2023-04-26T07:29:38.985Z,8.53
2023-04-26T07:32:05.657Z,8.62
2023-04-26T07:34:32.465Z,8.64
2023-04-26T07:36:58.963Z,8.51
2023-04-26T07:39:25.508Z,8.49
2023-04-26T07:41:52.060Z,8.52
2023-04-26T07:44:18.460Z,8.58
2023-04-26T07:46:44.852Z,8.56
2023-04-26T07:49:11.557Z,8.59
2023-04-26T07:51:38.109Z,8.41
2023-04-26T07:54:04.628Z,8.41
2023-04-26T07:56:31.001Z,8.44
2023-04-26T07:58:57.447Z,8.54
2023-04-26T08:01:24.008Z,8.65
2023-04-26T08:03:50.838Z,8.92
2023-04-26T08:06:17.580Z,9.04
2023-04-26T08:08:50.690Z,9.13
2023-04-26T08:11:17.512Z,9.47
2023-04-26T08:13:44.207Z,9.53
2023-04-26T08:16:10.835Z,9.66
2023-04-26T08:18:37.257Z,9.84
2023-04-26T08:21:04.163Z,10.08
2023-04-26T08:23:36.436Z,10.32
2023-04-26T08:26:03.330Z,10.26
2023-04-26T08:28:29.692Z,10.16
2023-04-26T08:30:56.237Z,10.03
2023-04-26T08:33:22.927Z,9.94
2023-04-26T08:35:49.371Z,9.91
2023-04-26T08:38:15.720Z,9.73
2023-04-26T08:40:46.650Z,9.60
2023-04-26T08:43:15.359Z,9.50
2023-04-26T08:45:45.755Z,9.32
2023-04-26T08:48:17.990Z,9.04
2023-04-26T08:50:46.468Z,8.94
2023-04-26T08:53:17.975Z,8.73
2023-04-26T08:55:49.474Z,8.62
2023-04-26T08:58:17.589Z,8.60
2023-04-26T09:00:46.097Z,8.49
2023-04-26T09:03:12.776Z,8.23
2023-04-26T09:05:45.945Z,8.16
2023-04-26T09:08:17.222Z,8.09
2023-04-26T09:10:43.824Z,7.99
2023-04-26T09:13:11.300Z,8.02
2023-04-26T09:15:38.150Z,8.09
2023-04-26T09:18:21.709Z,8.04
2023-04-26T09:21:08.573Z,8.02
2023-04-26T09:23:35.387Z,8.10
2023-04-26T09:26:21.600Z,8.20
2023-04-26T09:28:49.048Z,8.22
2023-04-26T09:31:37.427Z,8.34
2023-04-26T09:34:03.948Z,8.49
2023-04-26T09:36:31.720Z,8.70
2023-04-26T09:38:58.790Z,8.85
2023-04-26T09:41:42.153Z,8.86
2023-04-26T09:44:20.961Z,8.94
2023-04-26T09:46:58.921Z,8.87
2023-04-26T09:49:27.468Z,9.09
2023-04-26T09:52:05.448Z,9.28
2023-04-26T09:54:52.529Z,9.33
2023-04-26T09:57:19.988Z,9.49
2023-04-26T09:59:48.944Z,9.74
2023-04-26T10:02:17.024Z,10.05
2023-04-26T10:04:49.425Z,10.30
2023-04-26T10:07:18.435Z,10.34
2023-04-26T10:09:46.638Z,10.15
2023-04-26T10:12:15.008Z,10.21
2023-04-26T10:14:42.545Z,10.30
2023-04-26T10:17:09.128Z,10.40
2023-04-26T10:19:37.337Z,10.25
2023-04-26T10:22:33.630Z,10.22
2023-04-26T10:25:00.420Z,10.33
2023-04-26T10:27:47.620Z,10.52
2023-04-26T10:30:19.418Z,10.54
2023-04-26T10:32:52.230Z,10.54
2023-04-26T10:35:20.001Z,10.43
2023-04-26T10:38:01.662Z,10.22
2023-04-26T10:40:41.017Z,10.05
2023-04-26T10:43:16.786Z,9.95
2023-04-26T10:45:47.631Z,10.13
2023-04-26T10:48:19.802Z,10.03
2023-04-26T10:51:01.465Z,9.87
2023-04-26T10:53:29.690Z,9.99
2023-04-26T10:55:56.202Z,10.12
2023-04-26T10:58:31.119Z,10.18
2023-04-26T11:01:18.207Z,10.28
2023-04-26T11:04:07.326Z,10.47
2023-04-26T11:06:53.004Z,10.65
2023-04-26T11:09:41.653Z,10.74
2023-04-26T11:12:12.676Z,10.51
2023-04-26T11:14:41.825Z,10.41
2023-04-26T11:17:11.692Z,10.47
2023-04-26T11:19:38.690Z,10.74
2023-04-26T11:22:07.512Z,10.96
2023-04-26T11:24:39.098Z,10.96
2023-04-26T11:27:10.205Z,11.06
2023-04-26T11:29:37.133Z,11.04
2023-04-26T11:32:04.232Z,11.03
2023-04-26T11:34:41.622Z,11.33
2023-04-26T11:37:08.374Z,11.65
2023-04-26T11:39:36.846Z,11.89
2023-04-26T11:42:07.388Z,12.37
2023-04-26T11:44:34.592Z,12.20
2023-04-26T11:47:07.925Z,12.93
2023-04-26T11:49:37.319Z,13.34
2023-04-26T11:52:07.584Z,13.51
2023-04-26T11:54:36.642Z,13.79
2023-04-26T11:57:17.619Z,14.15
2023-04-26T11:59:44.925Z,14.28
2023-04-26T12:02:12.019Z,14.06
2023-04-26T12:04:41.884Z,13.41
2023-04-26T12:07:09.385Z,13.01
2023-04-26T12:09:41.204Z,12.90
2023-04-26T12:12:08.144Z,12.59
2023-04-26T12:14:39.093Z,12.27
2023-04-26T12:17:07.530Z,12.03
2023-04-26T12:19:35.446Z,11.87
2023-04-26T12:22:02.072Z,11.66
2023-04-26T12:24:33.329Z,11.42
2023-04-26T12:27:02.380Z,11.32
2023-04-26T12:29:30.726Z,11.37
2023-04-26T12:31:58.608Z,11.30
2023-04-26T12:34:25.352Z,11.23
2023-04-26T12:36:51.917Z,11.22
2023-04-26T12:39:18.280Z,11.16
2023-04-26T12:41:46.522Z,11.00
2023-04-26T12:44:14.225Z,10.88
2023-04-26T12:46:40.782Z,10.69
2023-04-26T12:49:07.538Z,10.76
2023-04-26T12:51:34.408Z,10.95
2023-04-26T12:54:00.904Z,11.00
2023-04-26T12:56:29.240Z,11.08
2023-04-26T12:58:55.878Z,11.22
2023-04-26T13:01:22.443Z,11.38
2023-04-26T13:03:49.210Z,11.50
2023-04-26T13:06:16.100Z,11.58
2023-04-26T13:08:42.493Z,11.41
2023-04-26T13:11:08.961Z,11.45
2023-04-26T13:13:43.109Z,11.53
2023-04-26T13:16:11.616Z,11.63
2023-04-26T13:18:38.218Z,11.52
2023-04-26T13:21:05.109Z,11.40
2023-04-26T13:23:31.494Z,11.25
2023-04-26T13:25:57.912Z,11.21
2023-04-26T13:28:24.272Z,11.08
2023-04-26T13:30:50.740Z,10.97
2023-04-26T13:33:17.343Z,10.97
2023-04-26T13:35:43.814Z,10.94
2023-04-26T13:38:11.322Z,10.84
2023-04-26T13:40:37.918Z,10.78
2023-04-26T13:43:04.318Z,10.65
2023-04-26T13:45:30.738Z,10.69
2023-04-26T13:47:57.413Z,10.66
2023-04-26T13:50:23.971Z,10.69
2023-04-26T13:52:52.861Z,10.76
2023-04-26T13:55:19.284Z,10.79
2023-04-26T13:57:45.643Z,10.91
2023-04-26T14:00:14.148Z,10.93
2023-04-26T14:02:41.053Z,11.01
2023-04-26T14:05:09.131Z,10.96
2023-04-26T14:07:35.803Z,11.03
2023-04-26T14:10:02.191Z,11.37
2023-04-26T14:12:29.394Z,11.65
2023-04-26T14:14:55.844Z,11.88
2023-04-26T14:17:22.290Z,12.06
2023-04-26T14:19:48.791Z,12.13
2023-04-26T14:22:17.563Z,12.02
2023-04-26T14:24:44.074Z,12.03
2023-04-26T14:27:10.574Z,11.80
2023-04-26T14:29:36.968Z,11.93
2023-04-26T14:32:03.444Z,12.17
2023-04-26T14:34:31.247Z,12.35
2023-04-26T14:37:01.511Z,12.28
2023-04-26T14:39:28.208Z,12.20
2023-04-26T14:41:56.758Z,12.15
2023-04-26T14:44:24.393Z,12.06
2023-04-26T14:46:51.298Z,11.94
2023-04-26T14:49:18.157Z,11.89
2023-04-26T14:51:44.512Z,11.95
2023-04-26T14:54:10.952Z,11.92
2023-04-26T14:56:37.558Z,11.91
2023-04-26T14:59:04.580Z,11.78
2023-04-26T15:01:31.551Z,11.72
2023-04-26T15:04:00.565Z,11.84
2023-04-26T15:06:28.668Z,11.88
2023-04-26T15:08:55.002Z,11.88
2023-04-26T15:11:21.403Z,11.75
2023-04-26T15:13:47.961Z,11.61
2023-04-26T15:16:14.600Z,11.62
2023-04-26T15:18:41.008Z,11.47
2023-04-26T15:21:07.384Z,11.48
2023-04-26T15:23:33.785Z,11.59
2023-04-26T15:26:04.749Z,11.64
2023-04-26T15:28:31.376Z,11.72
2023-04-26T15:31:05.333Z,11.72
2023-04-26T15:33:31.837Z,11.80
2023-04-26T15:35:58.278Z,11.84
2023-04-26T15:38:24.806Z,11.75
2023-04-26T15:40:51.387Z,11.56
2023-04-26T15:43:17.969Z,11.43
2023-04-26T15:45:44.576Z,11.37
2023-04-26T15:48:11.944Z,11.35
2023-04-26T15:50:38.578Z,11.20
2023-04-26T15:53:04.986Z,11.21
2023-04-26T15:55:35.094Z,11.14
2023-04-26T15:58:01.689Z,11.15
2023-04-26T16:00:28.397Z,11.17
2023-04-26T16:02:54.982Z,11.25
2023-04-26T16:05:21.511Z,11.32
2023-04-26T16:07:47.933Z,11.23
2023-04-26T16:10:14.552Z,11.21
2023-04-26T16:12:42.204Z,11.25
2023-04-26T16:15:09.765Z,11.26
2023-04-26T16:17:37.654Z,11.18
2023-04-26T16:20:06.779Z,11.13
2023-04-26T16:22:33.839Z,11.13
2023-04-26T16:25:00.772Z,11.10
2023-04-26T16:27:27.371Z,10.98
2023-04-26T16:29:54.390Z,10.90
2023-04-26T16:32:21.710Z,10.81
2023-04-26T16:34:48.497Z,10.75
2023-04-26T16:37:15.051Z,10.74
2023-04-26T16:39:41.430Z,10.75
2023-04-26T16:42:07.999Z,10.67
2023-04-26T16:44:34.428Z,10.66
2023-04-26T16:47:01.526Z,10.60
2023-04-26T16:49:28.233Z,10.65
2023-04-26T16:51:58.773Z,10.65
2023-04-26T16:54:26.137Z,10.66
2023-04-26T16:56:53.391Z,10.64
2023-04-26T16:59:20.108Z,10.58
2023-04-26T17:01:47.305Z,10.52
2023-04-26T17:04:14.351Z,10.50
2023-04-26T17:06:41.174Z,10.56
2023-04-26T17:09:08.657Z,10.66
2023-04-26T17:11:37.143Z,10.56
2023-04-26T17:14:04.344Z,10.50
2023-04-26T17:16:30.911Z,10.51
2023-04-26T17:18:58.292Z,10.50
2023-04-26T17:21:24.989Z,10.41
2023-04-26T17:23:51.637Z,10.33
2023-04-26T17:26:18.235Z,10.28
2023-04-26T17:28:44.661Z,10.25
2023-04-26T17:31:11.313Z,10.26
2023-04-26T17:33:37.772Z,10.20
2023-04-26T17:36:04.739Z,10.05
2023-04-26T17:38:31.282Z,9.93
2023-04-26T17:40:57.766Z,9.93
2023-04-26T17:43:24.280Z,9.93
2023-04-26T17:45:50.747Z,9.88
2023-04-26T17:48:17.184Z,9.81
2023-04-26T17:50:43.793Z,9.71
2023-04-26T17:53:10.734Z,9.60
2023-04-26T17:55:37.505Z,9.58
2023-04-26T17:58:04.047Z,9.60
2023-04-26T18:00:30.401Z,9.56
2023-04-26T18:02:57.987Z,9.46
2023-04-26T18:05:25.015Z,9.43
2023-04-26T18:07:51.817Z,9.40
2023-04-26T18:10:18.534Z,9.33
2023-04-26T18:12:44.951Z,9.29
2023-04-26T18:15:12.333Z,9.22
2023-04-26T18:17:38.983Z,9.19
2023-04-26T18:20:06.659Z,9.16
2023-04-26T18:22:33.087Z,9.10
2023-04-26T18:24:59.478Z,8.99
2023-04-26T18:27:26.036Z,8.91
2023-04-26T18:29:52.426Z,8.90
2023-04-26T18:32:18.842Z,8.85
2023-04-26T18:34:45.376Z,8.80
2023-04-26T18:37:11.964Z,8.81
2023-04-26T18:39:38.473Z,8.70
2023-04-26T18:42:05.016Z,8.68
2023-04-26T18:44:31.660Z,8.63
2023-04-26T18:46:58.010Z,8.61
2023-04-26T18:49:25.463Z,8.56
2023-04-26T18:51:51.990Z,8.50
2023-04-26T18:54:18.375Z,8.41
2023-04-26T18:56:45.075Z,8.41
2023-04-26T18:59:11.785Z,8.43
2023-04-26T19:01:38.607Z,8.38
2023-04-26T19:04:05.420Z,8.24
2023-04-26T19:06:32.769Z,8.17
2023-04-26T19:08:59.244Z,8.14
2023-04-26T19:11:25.693Z,8.10
2023-04-26T19:13:52.140Z,8.08
2023-04-26T19:16:18.679Z,8.08
2023-04-26T19:18:45.208Z,8.05
2023-04-26T19:21:11.670Z,7.98
2023-04-26T19:23:38.202Z,7.96
2023-04-26T19:26:06.963Z,7.92
2023-04-26T19:28:33.709Z,7.83
2023-04-26T19:31:00.639Z,7.76
2023-04-26T19:33:28.169Z,7.74
2023-04-26T19:35:56.343Z,7.68
2023-04-26T19:38:24.012Z,7.61
2023-04-26T19:40:51.360Z,7.61
2023-04-26T19:43:17.825Z,7.55
2023-04-26T19:45:45.198Z,7.50
2023-04-26T19:48:12.665Z,7.40
2023-04-26T19:50:44.249Z,7.34
2023-04-26T19:53:12.942Z,7.29
2023-04-26T19:55:40.922Z,7.24
2023-04-26T19:58:07.967Z,7.18
2023-04-26T20:00:38.533Z,7.10
2023-04-26T20:03:05.557Z,7.04
2023-04-26T20:05:32.372Z,6.95
2023-04-26T20:07:58.706Z,6.92
2023-04-26T20:10:25.080Z,6.86
2023-04-26T20:12:51.846Z,6.79
2023-04-26T20:15:18.563Z,6.73
2023-04-26T20:17:45.212Z,6.68
2023-04-26T20:20:12.236Z,6.62
2023-04-26T20:22:39.753Z,6.57
2023-04-26T20:25:06.743Z,6.54
2023-04-26T20:27:33.285Z,6.47
2023-04-26T20:29:59.800Z,6.40
2023-04-26T20:32:26.375Z,6.34
2023-04-26T20:34:53.291Z,6.29
2023-04-26T20:37:19.696Z,6.26
2023-04-26T20:39:46.165Z,6.20
2023-04-26T20:42:12.693Z,6.11
2023-04-26T20:44:39.043Z,6.04
2023-04-26T20:47:05.476Z,5.96
2023-04-26T20:49:32.017Z,5.87
2023-04-26T20:51:58.433Z,5.83
2023-04-26T20:54:24.826Z,5.79
2023-04-26T20:56:51.203Z,5.74
2023-04-26T20:59:17.698Z,5.64
2023-04-26T21:01:44.171Z,5.57
2023-04-26T21:04:10.729Z,5.54
2023-04-26T21:06:37.281Z,5.49
2023-04-26T21:09:05.180Z,5.36
2023-04-26T21:11:31.728Z,5.23
2023-04-26T21:13:58.727Z,5.08
2023-04-26T21:16:25.274Z,4.97
2023-04-26T21:18:52.590Z,4.89
2023-04-26T21:21:19.109Z,4.87
2023-04-26T21:23:45.522Z,4.85
2023-04-26T21:26:11.966Z,4.81
2023-04-26T21:28:38.331Z,4.73
2023-04-26T21:31:06.485Z,4.62
2023-04-26T21:33:33.964Z,4.52
2023-04-26T21:36:00.827Z,4.43
2023-04-26T21:38:27.265Z,4.34
2023-04-26T21:40:53.665Z,4.28
2023-04-26T21:43:21.621Z,4.21
2023-04-26T21:45:50.101Z,4.12
2023-04-26T21:48:16.786Z,4.09
2023-04-26T21:50:43.249Z,4.06
2023-04-26T21:53:09.683Z,4.03
2023-04-26T21:55:36.067Z,4.04
2023-04-26T21:58:02.410Z,3.98
2023-04-26T22:00:28.808Z,3.97
2023-04-26T22:02:55.578Z,3.89
2023-04-26T22:05:22.291Z,3.79
2023-04-26T22:07:48.679Z,3.67
2023-04-26T22:10:16.287Z,3.57
2023-04-26T22:12:42.764Z,3.50
2023-04-26T22:15:09.557Z,3.47
2023-04-26T22:17:36.164Z,3.47
2023-04-26T22:20:03.416Z,3.48
2023-04-26T22:22:29.778Z,3.43
2023-04-26T22:24:56.252Z,3.35
2023-04-26T22:27:22.586Z,3.29
2023-04-26T22:29:49.023Z,3.27
2023-04-26T22:32:15.791Z,3.27
2023-04-26T22:34:43.737Z,3.31
2023-04-26T22:37:20.760Z,3.34
2023-04-26T22:39:49.323Z,3.29
2023-04-26T22:42:15.794Z,3.20
2023-04-26T22:44:42.184Z,3.17
2023-04-26T22:47:08.621Z,3.10
2023-04-26T22:49:35.069Z,3.00
2023-04-26T22:52:09.459Z,2.97
2023-04-26T22:54:41.013Z,2.96
2023-04-26T22:57:08.273Z,2.93
2023-04-26T22:59:34.836Z,2.87
2023-04-26T23:02:01.712Z,2.78
2023-04-26T23:04:28.256Z,2.71
2023-04-26T23:06:54.832Z,2.68
2023-04-26T23:09:21.546Z,2.64
2023-04-26T23:11:48.071Z,2.60
2023-04-26T23:14:15.756Z,2.54
2023-04-26T23:16:42.485Z,2.47
2023-04-26T23:19:09.653Z,2.49
2023-04-26T23:21:36.313Z,2.48
2023-04-26T23:24:03.042Z,2.47
2023-04-26T23:26:29.602Z,2.39
2023-04-26T23:28:57.293Z,2.34
2023-04-26T23:31:23.863Z,2.34
2023-04-26T23:33:50.437Z,2.30
2023-04-26T23:36:17.046Z,2.28
2023-04-26T23:38:43.574Z,2.26
2023-04-26T23:41:09.958Z,2.20
2023-04-26T23:43:36.388Z,2.15
2023-04-26T23:46:02.990Z,2.06
2023-04-26T23:48:29.437Z,2.02
2023-04-26T23:50:56.009Z,1.96
2023-04-26T23:53:22.625Z,1.92
2023-04-26T23:55:49.019Z,1.89
2023-04-26T23:58:15.412Z,1.85
